createdAt,value
2023-03-26T00:01:25.461Z,97681.72
2023-03-26T00:03:54.843Z,97681.81
2023-03-26T00:06:24.112Z,97680.56
2023-03-26T00:08:51.968Z,97682.34
2023-03-26T00:11:20.996Z,97682.50
2023-03-26T00:13:49.318Z,97674.69
2023-03-26T00:16:18.906Z,97668.69
2023-03-26T00:18:46.293Z,97666.34
2023-03-26T00:21:17.181Z,97666.34
2023-03-26T00:23:44.661Z,97662.75
2023-03-26T00:26:13.146Z,97666.41
2023-03-26T00:28:41.914Z,97668.19
2023-03-26T00:31:12.453Z,97661.22
2023-03-26T00:33:40.836Z,97662.94
2023-03-26T00:36:14.804Z,97661.16
2023-03-26T00:38:43.349Z,97665.38
2023-03-26T00:41:23.201Z,97662.75
2023-03-26T00:43:53.438Z,97661.66
2023-03-26T00:46:20.831Z,97660.72
2023-03-26T00:48:48.026Z,97658.94
2023-03-26T00:51:16.962Z,97657.75
2023-03-26T00:53:45.976Z,97653.34
2023-03-26T00:56:13.871Z,97657.50
2023-03-26T00:58:41.504Z,97664.47
2023-03-26T01:01:13.844Z,97665.31
2023-03-26T01:03:50.111Z,97676.41
2023-03-26T01:06:27.976Z,97679.78
2023-03-26T01:09:00.524Z,97681.13
2023-03-26T01:11:32.023Z,97678.16
2023-03-26T01:14:25.186Z,97690.97
2023-03-26T01:16:53.728Z,97705.69
2023-03-26T01:19:23.290Z,97712.63
2023-03-26T01:21:50.835Z,97720.94
2023-03-26T01:24:17.879Z,97739.16
2023-03-26T01:27:43.197Z,97728.63
2023-03-26T01:30:29.106Z,97750.69
2023-03-26T01:33:05.396Z,97736.75
2023-03-26T01:35:44.967Z,97732.47
2023-03-26T01:38:30.646Z,97727.16
2023-03-26T01:41:25.459Z,97721.44
2023-03-26T01:44:15.106Z,97720.50
2023-03-26T01:46:42.880Z,97716.28
2023-03-26T01:49:13.306Z,97723.91
2023-03-26T01:51:42.659Z,97721.22
2023-03-26T01:54:14.900Z,97721.91
2023-03-26T01:57:08.298Z,97711.50
2023-03-26T01:59:35.521Z,97707.88
2023-03-26T02:02:20.307Z,97699.09
2023-03-26T02:05:10.910Z,97704.25
2023-03-26T02:07:51.124Z,97699.22
2023-03-26T02:10:29.871Z,97707.09
2023-03-26T02:12:58.427Z,97698.47
2023-03-26T02:15:26.042Z,97702.69
2023-03-26T02:17:54.334Z,97697.63
2023-03-26T02:20:22.126Z,97696.72
2023-03-26T02:22:49.071Z,97695.00
2023-03-26T02:25:19.187Z,97698.56
2023-03-26T02:27:47.469Z,97691.53
2023-03-26T02:30:19.026Z,97691.84
2023-03-26T02:32:45.981Z,97703.41
2023-03-26T02:35:13.700Z,97693.25
2023-03-26T02:37:42.218Z,97692.63
2023-03-26T02:40:11.816Z,97693.88
2023-03-26T02:42:39.077Z,97695.41
2023-03-26T02:45:12.782Z,97681.72
2023-03-26T02:47:39.692Z,97687.13
2023-03-26T02:50:09.094Z,97681.78
2023-03-26T02:52:38.914Z,97686.28
2023-03-26T02:55:07.557Z,97696.94
2023-03-26T02:57:34.811Z,97690.09
2023-03-26T03:00:05.945Z,97691.88
2023-03-26T03:02:32.975Z,97700.66
2023-03-26T03:05:01.784Z,97697.28
2023-03-26T03:07:29.208Z,97692.94
2023-03-26T03:09:56.425Z,97691.94
2023-03-26T03:12:23.319Z,97690.19
2023-03-26T03:14:50.469Z,97691.88
2023-03-26T03:17:17.434Z,97694.44
2023-03-26T03:19:45.347Z,97694.50
2023-03-26T03:22:12.359Z,97698.88
2023-03-26T03:24:39.964Z,97693.66
2023-03-26T03:27:06.882Z,97684.19
2023-03-26T03:29:34.069Z,97686.69
2023-03-26T03:32:00.975Z,97690.09
2023-03-26T03:34:28.206Z,97695.31
2023-03-26T03:36:55.078Z,97690.03
2023-03-26T03:39:22.351Z,97696.03
2023-03-26T03:41:50.168Z,97697.03
2023-03-26T03:44:17.378Z,97689.31
2023-03-26T03:46:44.322Z,97694.44
2023-03-26T03:49:11.575Z,97694.44
2023-03-26T03:51:38.450Z,97702.19
2023-03-26T03:54:05.763Z,97697.88
2023-03-26T03:56:32.718Z,97697.72
2023-03-26T03:59:00.031Z,97692.41
2023-03-26T04:01:27.039Z,97701.13
2023-03-26T04:03:54.360Z,97696.88
2023-03-26T04:06:21.468Z,97699.78
2023-03-26T04:08:48.649Z,97695.72
2023-03-26T04:11:15.548Z,97695.94
2023-03-26T04:13:43.319Z,97691.94
2023-03-26T04:16:11.112Z,97695.69
2023-03-26T04:18:38.383Z,97692.59
2023-03-26T04:21:07.524Z,97699.66
2023-03-26T04:23:35.400Z,97692.03
2023-03-26T04:26:05.672Z,97696.78
2023-03-26T04:28:42.465Z,97696.72
2023-03-26T04:31:13.972Z,97694.09
2023-03-26T04:33:46.924Z,97691.25
2023-03-26T04:36:16.106Z,97693.88
2023-03-26T04:38:52.094Z,97700.72
2023-03-26T04:41:19.144Z,97702.91
2023-03-26T04:43:50.834Z,97693.91
2023-03-26T04:46:21.999Z,97705.41
2023-03-26T04:48:53.956Z,97706.69
2023-03-26T04:51:27.130Z,97705.06
2023-03-26T04:54:00.026Z,97707.94
2023-03-26T04:56:32.628Z,97700.19
2023-03-26T04:59:02.057Z,97710.41
2023-03-26T05:01:30.754Z,97717.97
2023-03-26T05:03:58.799Z,97713.72
2023-03-26T05:06:28.746Z,97713.88
2023-03-26T05:08:56.350Z,97712.28
2023-03-26T05:11:23.234Z,97715.97
2023-03-26T05:13:50.596Z,97712.75
2023-03-26T05:16:17.624Z,97716.28
2023-03-26T05:18:44.850Z,97717.16
2023-03-26T05:21:12.011Z,97715.25
2023-03-26T05:23:39.154Z,97713.50
2023-03-26T05:26:07.757Z,97710.66
2023-03-26T05:28:35.034Z,97718.88
2023-03-26T05:31:02.731Z,97716.09
2023-03-26T05:33:30.171Z,97721.28
2023-03-26T05:36:06.093Z,97723.22
2023-03-26T05:38:33.976Z,97719.81
2023-03-26T05:41:02.900Z,97725.16
2023-03-26T05:43:30.051Z,97723.59
2023-03-26T05:45:57.087Z,97723.53
2023-03-26T05:48:25.472Z,97723.66
2023-03-26T05:50:54.337Z,97721.97
2023-03-26T05:53:23.293Z,97720.19
2023-03-26T05:55:58.199Z,97717.50
2023-03-26T05:58:27.471Z,97714.13
2023-03-26T06:01:08.994Z,97724.53
2023-03-26T06:03:38.911Z,97711.78
2023-03-26T06:06:15.658Z,97714.28
2023-03-26T06:08:46.758Z,97716.00
2023-03-26T06:11:13.861Z,97721.03
2023-03-26T06:13:41.703Z,97726.63
2023-03-26T06:16:09.996Z,97724.91
2023-03-26T06:18:56.657Z,97725.63
2023-03-26T06:21:24.884Z,97716.75
2023-03-26T06:23:52.127Z,97723.50
2023-03-26T06:26:19.608Z,97721.75
2023-03-26T06:28:46.753Z,97715.81
2023-03-26T06:31:13.983Z,97721.84
2023-03-26T06:33:41.242Z,97719.09
2023-03-26T06:36:08.515Z,97721.09
2023-03-26T06:38:35.903Z,97718.81
2023-03-26T06:41:06.946Z,97727.97
2023-03-26T06:43:34.664Z,97725.22
2023-03-26T06:46:02.394Z,97730.84
2023-03-26T06:48:29.658Z,97725.13
2023-03-26T06:50:56.680Z,97719.28
2023-03-26T06:53:24.044Z,97712.25
2023-03-26T06:55:51.024Z,97715.41
2023-03-26T06:58:18.215Z,97722.41
2023-03-26T07:00:45.178Z,97728.28
2023-03-26T07:03:12.534Z,97720.94
2023-03-26T07:05:41.601Z,97719.50
2023-03-26T07:08:08.879Z,97714.81
2023-03-26T07:10:35.857Z,97707.66
2023-03-26T07:13:03.102Z,97722.91
2023-03-26T07:15:30.017Z,97722.72
2023-03-26T07:17:57.233Z,97724.16
2023-03-26T07:20:24.767Z,97714.25
2023-03-26T07:22:52.713Z,97720.69
2023-03-26T07:25:20.112Z,97719.63
2023-03-26T07:28:21.383Z,97729.84
2023-03-26T07:30:58.872Z,97728.09
2023-03-26T07:33:38.560Z,97724.47
2023-03-26T07:36:20.783Z,97720.69
2023-03-26T07:39:20.410Z,97721.94
2023-03-26T07:41:52.175Z,97717.75
2023-03-26T07:44:44.189Z,97710.66
2023-03-26T07:47:35.131Z,97707.91
2023-03-26T07:50:03.110Z,97709.81
2023-03-26T07:52:30.335Z,97716.66
2023-03-26T07:54:57.888Z,97704.47
2023-03-26T07:57:45.595Z,97709.19
2023-03-26T08:00:22.451Z,97713.34
2023-03-26T08:02:52.493Z,97710.00
2023-03-26T08:05:33.018Z,97707.88
2023-03-26T08:08:20.755Z,97702.75
2023-03-26T08:11:12.165Z,97699.78
2023-03-26T08:13:41.694Z,97693.13
2023-03-26T08:16:11.754Z,97696.06
2023-03-26T08:18:41.439Z,97690.84
2023-03-26T08:21:28.384Z,97682.66
2023-03-26T08:24:18.218Z,97694.59
2023-03-26T08:27:13.448Z,97703.00
2023-03-26T08:29:54.405Z,97706.09
2023-03-26T08:32:22.075Z,97695.81
2023-03-26T08:34:50.070Z,97693.44
2023-03-26T08:37:17.452Z,97683.94
2023-03-26T08:39:45.161Z,97680.31
2023-03-26T08:42:36.996Z,97690.75
2023-03-26T08:45:09.519Z,97696.91
2023-03-26T08:48:10.645Z,97690.06
2023-03-26T08:50:56.020Z,97685.03
2023-03-26T08:53:36.679Z,97685.19
2023-03-26T08:56:20.303Z,97694.69
2023-03-26T08:59:06.393Z,97691.09
2023-03-26T09:02:00.927Z,97691.69
2023-03-26T09:04:28.241Z,97690.13
2023-03-26T09:07:16.339Z,97684.47
2023-03-26T09:10:02.986Z,97684.56
2023-03-26T09:12:35.552Z,97690.56
2023-03-26T09:15:39.504Z,97692.19
2023-03-26T09:18:57.735Z,97678.72
2023-03-26T09:21:39.875Z,97677.41
2023-03-26T09:24:47.294Z,97695.63
2023-03-26T09:27:33.007Z,97683.09
2023-03-26T09:30:06.816Z,97688.31
2023-03-26T09:32:37.018Z,97695.53
2023-03-26T09:35:16.161Z,97695.94
2023-03-26T09:38:40.594Z,97697.72
2023-03-26T09:41:52.768Z,97695.53
2023-03-26T09:44:48.105Z,97690.22
2023-03-26T09:47:59.481Z,97685.22
2023-03-26T09:50:41.304Z,97672.38
2023-03-26T09:53:29.365Z,97673.97
2023-03-26T09:56:08.625Z,97678.44
2023-03-26T09:59:03.686Z,97677.00
2023-03-26T10:01:32.265Z,97669.41
2023-03-26T10:04:42.166Z,97670.03
2023-03-26T10:07:22.108Z,97659.53
2023-03-26T10:10:02.325Z,97660.97
2023-03-26T10:12:46.100Z,97669.00
2023-03-26T10:15:30.724Z,97661.44
2023-03-26T10:18:28.530Z,97663.81
2023-03-26T10:21:04.594Z,97670.09
2023-03-26T10:23:53.541Z,97667.88
2023-03-26T10:26:36.687Z,97668.78
2023-03-26T10:29:22.634Z,97652.13
2023-03-26T10:31:56.178Z,97664.91
2023-03-26T10:34:42.123Z,97659.53
2023-03-26T10:37:14.235Z,97652.78
2023-03-26T10:39:51.069Z,97657.13
2023-03-26T10:42:28.351Z,97661.06
2023-03-26T10:45:07.492Z,97652.81
2023-03-26T10:47:49.454Z,97652.84
2023-03-26T10:50:23.501Z,97653.34
2023-03-26T10:53:16.987Z,97652.13
2023-03-26T10:55:54.749Z,97655.31
2023-03-26T10:58:49.212Z,97650.63
2023-03-26T11:01:28.995Z,97645.69
2023-03-26T11:04:02.017Z,97643.50
2023-03-26T11:06:47.131Z,97647.94
2023-03-26T11:09:26.289Z,97646.09
2023-03-26T11:12:02.421Z,97638.69
2023-03-26T11:14:49.255Z,97637.34
2023-03-26T11:17:47.989Z,97631.13
2023-03-26T11:20:44.150Z,97626.50
2023-03-26T11:23:35.059Z,97637.63
2023-03-26T11:26:35.115Z,97630.06
2023-03-26T11:29:31.590Z,97622.97
2023-03-26T11:32:13.797Z,97616.56
2023-03-26T11:34:56.584Z,97613.81
2023-03-26T11:37:35.555Z,97616.88
2023-03-26T11:40:11.584Z,97617.50
2023-03-26T11:42:39.170Z,97607.75
2023-03-26T11:45:14.979Z,97612.31
2023-03-26T11:47:48.455Z,97599.91
2023-03-26T11:50:23.994Z,97596.44
2023-03-26T11:52:51.280Z,97610.31
2023-03-26T11:55:18.964Z,97605.38
2023-03-26T11:57:55.563Z,97600.84
2023-03-26T12:00:27.608Z,97595.00
2023-03-26T12:02:59.292Z,97590.78
2023-03-26T12:05:33.666Z,97581.97
2023-03-26T12:08:03.012Z,97577.63
2023-03-26T12:10:38.161Z,97578.38
2023-03-26T12:13:50.752Z,97579.75
2023-03-26T12:16:21.414Z,97576.09
2023-03-26T12:19:01.108Z,97575.50
2023-03-26T12:21:28.521Z,97582.56
2023-03-26T12:24:00.349Z,97570.81
2023-03-26T12:26:49.042Z,97566.31
2023-03-26T12:29:19.039Z,97567.09
2023-03-26T12:32:13.930Z,97565.28
2023-03-26T12:34:41.665Z,97571.69
2023-03-26T12:37:34.569Z,97580.47
2023-03-26T12:40:35.992Z,97579.09
2023-03-26T12:44:54.487Z,97569.03
2023-03-26T12:47:58.376Z,97568.84
2023-03-26T12:49:13.539Z,97571.19
2023-03-26T12:51:53.359Z,97571.22
2023-03-26T12:54:54.473Z,97571.16
2023-03-26T12:57:26.583Z,97564.56
2023-03-26T13:00:41.860Z,97566.16
2023-03-26T13:03:17.632Z,97575.69
2023-03-26T13:06:05.318Z,97550.59
2023-03-26T13:08:49.006Z,97568.56
2023-03-26T13:11:16.133Z,97562.97
2023-03-26T13:14:47.700Z,97543.59
2023-03-26T13:17:17.743Z,97544.56
2023-03-26T13:20:07.338Z,97541.53
2023-03-26T13:22:56.379Z,97537.91
2023-03-26T13:25:52.168Z,97527.72
2023-03-26T13:29:04.731Z,97525.66
2023-03-26T13:31:46.364Z,97525.06
2023-03-26T13:34:41.514Z,97514.47
2023-03-26T13:37:25.129Z,97511.69
2023-03-26T13:40:05.053Z,97515.03
2023-03-26T13:43:09.636Z,97509.53
2023-03-26T13:46:21.733Z,97506.56
2023-03-26T13:49:09.453Z,97502.59
2023-03-26T13:51:51.397Z,97510.06
2023-03-26T13:54:24.733Z,97498.94
2023-03-26T13:57:04.760Z,97508.13
2023-03-26T13:59:36.154Z,97502.75
2023-03-26T14:02:15.124Z,97491.13
2023-03-26T14:04:47.803Z,97494.97
2023-03-26T14:07:26.320Z,97499.66
2023-03-26T14:10:07.063Z,97485.44
2023-03-26T14:12:49.415Z,97486.25
2023-03-26T14:15:22.776Z,97493.16
2023-03-26T14:18:06.295Z,97486.56
2023-03-26T14:20:56.656Z,97477.41
2023-03-26T14:23:47.517Z,97479.72
2023-03-26T14:26:19.510Z,97486.84
2023-03-26T14:29:29.814Z,97484.06
2023-03-26T14:32:26.479Z,97474.22
2023-03-26T14:34:59.599Z,97469.13
2023-03-26T14:37:33.158Z,97469.56
2023-03-26T14:40:28.310Z,97468.44
2023-03-26T14:43:23.168Z,97462.25
2023-03-26T14:45:53.612Z,97463.75
2023-03-26T14:48:39.371Z,97471.59
2023-03-26T14:51:40.948Z,97461.53
2023-03-26T14:54:13.330Z,97469.28
2023-03-26T14:56:59.219Z,97469.03
2023-03-26T14:59:41.616Z,97464.38
2023-03-26T15:02:46.306Z,97463.72
2023-03-26T15:05:16.844Z,97459.75
2023-03-26T15:08:16.804Z,97470.06
2023-03-26T15:11:21.137Z,97459.84
2023-03-26T15:14:06.350Z,97459.72
2023-03-26T15:17:15.552Z,97457.66
2023-03-26T15:20:26.136Z,97451.16
2023-03-26T15:23:17.680Z,97455.34
2023-03-26T15:26:23.465Z,97452.22
2023-03-26T15:29:03.594Z,97464.09
2023-03-26T15:32:07.665Z,97458.22
2023-03-26T15:34:49.993Z,97453.88
2023-03-26T15:37:37.611Z,97453.03
2023-03-26T15:40:29.197Z,97455.91
2023-03-26T15:43:16.072Z,97454.31
2023-03-26T15:46:13.152Z,97462.25
2023-03-26T15:48:49.996Z,97462.25
2023-03-26T15:51:53.763Z,97462.47
2023-03-26T15:54:28.981Z,97465.03
2023-03-26T15:57:24.910Z,97475.69
2023-03-26T16:00:19.328Z,97475.06
2023-03-26T16:03:10.751Z,97475.53
2023-03-26T16:06:06.159Z,97476.63
2023-03-26T16:08:39.166Z,97471.78
2023-03-26T16:11:12.647Z,97479.19
2023-03-26T16:13:50.055Z,97475.44
2023-03-26T16:16:22.444Z,97476.81
2023-03-26T16:18:56.517Z,97486.78
2023-03-26T16:21:39.316Z,97486.97
2023-03-26T16:24:06.136Z,97481.84
2023-03-26T16:26:51.350Z,97487.44
2023-03-26T16:29:25.758Z,97491.25
2023-03-26T16:32:14.943Z,97496.38
2023-03-26T16:34:50.715Z,97508.94
2023-03-26T16:37:39.848Z,97500.50
2023-03-26T16:40:22.491Z,97496.47
2023-03-26T16:43:01.563Z,97498.59
2023-03-26T16:46:05.818Z,97497.34
2023-03-26T16:48:37.768Z,97499.66
2023-03-26T16:51:07.346Z,97495.66
2023-03-26T16:53:49.435Z,97498.72
2023-03-26T16:56:33.559Z,97492.91
2023-03-26T16:59:08.260Z,97496.59
2023-03-26T17:01:48.263Z,97498.50
2023-03-26T17:04:24.741Z,97498.63
2023-03-26T17:07:01.771Z,97489.97
2023-03-26T17:09:51.924Z,97507.19
2023-03-26T17:12:34.585Z,97502.22
2023-03-26T17:15:41.251Z,97510.53
2023-03-26T17:18:31.229Z,97507.16
2023-03-26T17:21:16.396Z,97504.84
2023-03-26T17:24:15.642Z,97507.88
2023-03-26T17:27:04.703Z,97500.22
2023-03-26T17:29:58.120Z,97508.28
2023-03-26T17:32:56.232Z,97506.28
2023-03-26T17:35:41.881Z,97505.00
2023-03-26T17:38:29.337Z,97500.47
2023-03-26T17:40:58.957Z,97505.19
2023-03-26T17:43:48.430Z,97506.19
2023-03-26T17:46:46.012Z,97507.09
2023-03-26T17:49:20.439Z,97500.94
2023-03-26T17:52:01.026Z,97504.56
2023-03-26T17:54:33.721Z,97501.75
2023-03-26T17:57:14.445Z,97502.53
2023-03-26T17:59:44.290Z,97502.22
2023-03-26T18:02:16.555Z,97505.28
2023-03-26T18:04:48.432Z,97500.25
2023-03-26T18:07:34.276Z,97504.41
2023-03-26T18:10:17.004Z,97506.50
2023-03-26T18:12:55.751Z,97515.03
2023-03-26T18:15:30.404Z,97500.59
2023-03-26T18:18:10.691Z,97500.94
2023-03-26T18:20:38.527Z,97493.06
2023-03-26T18:23:22.127Z,97500.28
2023-03-26T18:26:09.630Z,97497.75
2023-03-26T18:28:41.990Z,97486.38
2023-03-26T18:31:18.634Z,97490.03
2023-03-26T18:33:48.598Z,97489.22
2023-03-26T18:36:18.605Z,97487.78
2023-03-26T18:38:46.852Z,97482.09
2023-03-26T18:41:37.724Z,97486.09
2023-03-26T18:44:07.872Z,97472.56
2023-03-26T18:46:35.712Z,97486.06
2023-03-26T18:49:03.442Z,97484.81
2023-03-26T18:51:32.187Z,97486.19
2023-03-26T18:54:03.468Z,97481.22
2023-03-26T18:56:39.623Z,97473.88
2023-03-26T18:59:20.610Z,97466.38
2023-03-26T19:01:49.061Z,97470.94
2023-03-26T19:04:17.904Z,97460.16
2023-03-26T19:06:46.292Z,97462.03
2023-03-26T19:09:30.278Z,97470.25
2023-03-26T19:12:09.205Z,97459.59
2023-03-26T19:15:03.642Z,97465.16
2023-03-26T19:17:45.987Z,97461.78
2023-03-26T19:20:20.193Z,97464.59
2023-03-26T19:22:48.751Z,97463.16
2023-03-26T19:25:31.783Z,97467.28
2023-03-26T19:27:59.815Z,97461.72
2023-03-26T19:30:32.491Z,97464.88
2023-03-26T19:33:12.210Z,97460.13
2023-03-26T19:35:42.918Z,97464.19
2023-03-26T19:38:23.555Z,97461.03
2023-03-26T19:40:53.280Z,97456.78
2023-03-26T19:43:21.111Z,97460.53
2023-03-26T19:46:00.447Z,97462.38
2023-03-26T19:48:45.969Z,97458.88
2023-03-26T19:51:34.662Z,97459.75
2023-03-26T19:54:12.701Z,97454.53
2023-03-26T19:56:40.228Z,97455.19
2023-03-26T19:59:07.965Z,97449.88
2023-03-26T20:01:36.532Z,97443.69
2023-03-26T20:04:06.818Z,97453.19
2023-03-26T20:06:43.205Z,97458.44
2023-03-26T20:09:16.708Z,97461.97
2023-03-26T20:11:44.145Z,97454.16
2023-03-26T20:14:21.680Z,97451.56
2023-03-26T20:16:49.049Z,97442.78
2023-03-26T20:19:16.801Z,97448.88
2023-03-26T20:21:45.004Z,97444.38
2023-03-26T20:24:15.793Z,97445.16
2023-03-26T20:26:44.143Z,97444.06
2023-03-26T20:29:13.115Z,97439.75
2023-03-26T20:31:41.905Z,97424.78
2023-03-26T20:34:28.165Z,97420.41
2023-03-26T20:36:57.216Z,97420.25
2023-03-26T20:39:28.722Z,97415.09
2023-03-26T20:41:56.424Z,97412.78
2023-03-26T20:44:26.824Z,97409.66
2023-03-26T20:46:54.445Z,97412.69
2023-03-26T20:49:22.238Z,97409.56
2023-03-26T20:51:49.278Z,97405.66
2023-03-26T20:54:23.375Z,97395.50
2023-03-26T20:56:51.415Z,97401.16
2023-03-26T20:59:22.360Z,97398.94
2023-03-26T21:01:51.181Z,97393.31
2023-03-26T21:04:19.438Z,97398.84
2023-03-26T21:06:47.097Z,97394.56
2023-03-26T21:09:24.118Z,97399.97
2023-03-26T21:12:03.335Z,97392.44
2023-03-26T21:14:30.835Z,97394.34
2023-03-26T21:16:58.156Z,97394.75
2023-03-26T21:19:26.213Z,97389.56
2023-03-26T21:22:03.128Z,97394.03
2023-03-26T21:25:03.557Z,97388.13
2023-03-26T21:27:36.427Z,97384.50
2023-03-26T21:30:10.692Z,97374.28
2023-03-26T21:32:38.102Z,97370.97
2023-03-26T21:35:07.664Z,97377.91
2023-03-26T21:37:35.116Z,97364.28
2023-03-26T21:40:12.646Z,97369.53
2023-03-26T21:42:41.195Z,97357.44
2023-03-26T21:45:09.153Z,97353.13
2023-03-26T21:47:36.706Z,97350.59
2023-03-26T21:50:06.024Z,97355.03
2023-03-26T21:52:33.223Z,97351.47
2023-03-26T21:55:01.563Z,97353.13
2023-03-26T21:57:47.458Z,97339.28
2023-03-26T22:00:23.705Z,97336.59
2023-03-26T22:03:12.921Z,97330.53
2023-03-26T22:06:13.642Z,97328.84
2023-03-26T22:08:42.120Z,97330.44
2023-03-26T22:11:11.498Z,97312.06
2023-03-26T22:13:38.925Z,97313.63
2023-03-26T22:16:08.051Z,97303.06
2023-03-26T22:18:35.571Z,97309.16
2023-03-26T22:21:03.104Z,97301.97
2023-03-26T22:23:34.427Z,97289.84
2023-03-26T22:26:01.900Z,97288.00
2023-03-26T22:28:30.159Z,97288.75
2023-03-26T22:30:58.382Z,97290.50
2023-03-26T22:33:25.678Z,97292.16
2023-03-26T22:35:54.017Z,97292.03
2023-03-26T22:38:21.036Z,97287.66
2023-03-26T22:40:55.877Z,97277.06
2023-03-26T22:43:23.560Z,97283.97
2023-03-26T22:45:51.441Z,97279.66
2023-03-26T22:48:18.385Z,97277.97
2023-03-26T22:50:46.400Z,97278.91
2023-03-26T22:53:13.501Z,97281.69
2023-03-26T22:55:40.874Z,97273.16
2023-03-26T22:58:08.175Z,97271.47
2023-03-26T23:00:36.251Z,97268.22
2023-03-26T23:03:04.636Z,97263.84
2023-03-26T23:05:31.892Z,97268.34
2023-03-26T23:07:58.769Z,97264.72
2023-03-26T23:10:26.119Z,97263.09
2023-03-26T23:12:53.027Z,97265.63
2023-03-26T23:15:20.710Z,97273.38
2023-03-26T23:17:54.223Z,97275.75
2023-03-26T23:20:22.527Z,97271.97
2023-03-26T23:22:49.515Z,97274.44
2023-03-26T23:25:16.708Z,97269.88
2023-03-26T23:27:43.820Z,97265.25
2023-03-26T23:30:11.699Z,97264.00
2023-03-26T23:32:38.762Z,97265.22
2023-03-26T23:35:06.522Z,97257.72
2023-03-26T23:37:35.302Z,97253.81
2023-03-26T23:40:07.451Z,97245.72
2023-03-26T23:42:34.638Z,97255.94
2023-03-26T23:45:02.135Z,97254.50
2023-03-26T23:47:34.747Z,97249.00
2023-03-26T23:50:02.663Z,97246.97
2023-03-26T23:52:30.933Z,97241.28
2023-03-26T23:55:00.866Z,97240.47
2023-03-26T23:57:28.047Z,97239.44
2023-03-26T23:59:55.701Z,97238.34
